Ada, Oklahoma
Current Conditions -  °F | °C
As of 9:15 AM on Thursday 18 Dec 2014 (Local Time) from KADH Reporting Station
Moderate Fog Moderate Fog  
Wind Chill:   Ceiling: 200
Heat Index:   Visibility: 0.5mi
Dew Point:   Wind: 3mph
Humidity: 100%   Direction: 110°ESE
Pressure: 30.17"   Gusts: NA
Location:  34.78°N, 96.68°W
Report Text: KADH 181515Z AUTO 11003KT 1/2SM FG OVC002 03/03 A3017 RMK AO2
Loading
Personal Weather Stations






























Interactive Weather Map New forecast layout! Learn more

10-Day Weather Forecast

Advertisements
Track Severe Weather on mobile